Tropical Cyclones
[Index]
Main Index Home Page Stock Weather Photos Extreme Storms Discussion Storm News and Storm Chasing Reports Tropical Cyclones / Hurricanes / Typhoons Weather Data and Links Wild Fires / Bushfires Weather Observation Techniques Weather Picture Catalogue Tornado Pictures and Reports Stock Video Footage and DVDs for sale
Season 2013-2014 Tropical Cyclone GUITO Track Map
Season 2013-2014 Summaries (Operational Data): [AU] [SIO] [SPAC] [SH]
<<- Previous TC | 2013-2014 Season | Next TC ->>

click for intensity scale information  Lat/long Grid: Show Hide

 Date Labels: Show Hide

Operational Tropical Cyclone Data : JTWC Advisories

Name: GUITO
Number: 1415

12 Feb 2014 00:00 UTC to 23 Feb 2014 12:00 UTC

    date/time    lat    long     hPa   cat  kts
2014-02-12 00   14.3    36.8    1010         15          
2014-02-12 06   15.1    38.6    1010         15          
2014-02-12 12   15.8    40.5    1010         15          
2014-02-12 18   13.2    44.5    1010         15          
2014-02-13 00   13.3    43.8    1010         15          
2014-02-13 06   13.2    42.9    1010         15          
2014-02-13 12   15.9    42.1    1010         15          
2014-02-13 18   15.9    41.6    1010         15          
2014-02-14 00   16.0    41.1    1010         15          
2014-02-14 06   16.1    40.5    1010         15          
2014-02-14 12   16.2    40.0    1010         15          
2014-02-14 18   16.5    39.3    1010         15          
2014-02-15 00   16.4    38.6    1010         15          
2014-02-15 18   18.0    36.9    1010         15          
2014-02-16 00   17.9    36.7    1010         15          
2014-02-16 06   15.2    39.1    1010         15          
2014-02-16 12   15.5    39.4    1007         20          
2014-02-16 18   15.8    39.7    1005         20          
2014-02-17 00   16.0    39.9    1005         20          
2014-02-17 06   16.2    40.1    1005         20          
2014-02-17 12   16.5    40.3    1003         20          
2014-02-17 18   16.8    40.4    1002         25          
2014-02-18 00   17.2    40.5    1000         30          
2014-02-18 06   17.8    40.4    1000         30          
2014-02-18 12   18.3    40.3     996    1    35          
2014-02-18 18   18.8    40.1     993    1    40          
2014-02-19 00   19.4    39.9     989    1    45          
2014-02-19 06   20.0    39.8     985    2    50          
2014-02-19 12   20.9    39.6     978    2    60          
2014-02-19 18   21.9    39.3     974    3    65          
2014-02-20 00   23.3    38.9     974    3    65          
2014-02-20 06   24.6    38.6     974    3    65          
2014-02-20 12   25.8    38.3     974    3    65          
2014-02-20 18   27.4    38.3     974    3    65          
2014-02-21 00   28.7    38.5     971    2    50          
2014-02-21 06   29.9    38.8     981    2    50          
2014-02-21 12   30.8    39.1     983    1    45          
2014-02-21 18   31.6    39.8     983    1    45          
2014-02-22 00   32.2    40.4     983    2    50          
2014-02-22 06   32.9    41.3            1    35          
2014-02-22 12   33.1    42.0     990    1    40          
2014-02-22 18   33.3    42.0     991    1    35          
2014-02-23 00   35.0    44.0    1002                     
2014-02-23 12   38.0    49.0    1000                     
Winds are 10-min average.

Tropical cyclone tracks developed by Michael Bath using operational warnings and advisories and Google Maps.


[Australian Severe Weather index] [Copyright Notice] [Email Contacts] [Search This Site] [Privacy Policy]
Document: tropical_cyclone_guito.htm Updated: 2 May 2017